createdAt,value
2018-12-19T00:00:27.256Z,96.10
2018-12-19T00:01:28.750Z,96.40
2018-12-19T00:02:30.268Z,96.20
2018-12-19T00:03:31.780Z,96.20
2018-12-19T00:04:33.275Z,96.30
2018-12-19T00:05:34.774Z,96.30
2018-12-19T00:06:36.249Z,96.30
2018-12-19T00:07:37.682Z,96.40
2018-12-19T00:08:39.086Z,96.40
2018-12-19T00:09:40.504Z,96.40
2018-12-19T00:10:42.052Z,96.40
2018-12-19T00:11:43.565Z,96.40
2018-12-19T00:12:45.099Z,96.40
2018-12-19T00:13:46.580Z,96.40
2018-12-19T00:14:48.061Z,96.50
2018-12-19T00:15:49.575Z,96.50
2018-12-19T00:16:51.081Z,96.60
2018-12-19T00:17:52.636Z,96.60
2018-12-19T00:18:54.112Z,96.70
2018-12-19T00:19:55.756Z,96.90
2018-12-19T00:20:57.184Z,96.60
2018-12-19T00:21:58.575Z,96.60
2018-12-19T00:23:00.014Z,96.50
2018-12-19T00:24:01.424Z,96.50
2018-12-19T00:25:02.812Z,96.40
2018-12-19T00:26:05.146Z,96.40
2018-12-19T00:27:06.690Z,96.50
2018-12-19T00:28:08.222Z,96.50
2018-12-19T00:29:09.722Z,96.50
2018-12-19T00:30:11.136Z,96.50
2018-12-19T00:31:12.522Z,96.50
2018-12-19T00:32:13.949Z,96.50
2018-12-19T00:33:15.386Z,96.60
2018-12-19T00:34:16.768Z,96.60
2018-12-19T00:35:18.145Z,96.50
2018-12-19T00:36:19.670Z,96.60
2018-12-19T00:37:22.144Z,96.40
2018-12-19T00:38:23.818Z,96.40
2018-12-19T00:39:25.236Z,96.40
2018-12-19T00:40:26.709Z,96.50
2018-12-19T00:41:28.208Z,96.40
2018-12-19T00:42:29.698Z,96.50
2018-12-19T00:43:31.356Z,96.40
2018-12-19T00:44:33.102Z,96.40
2018-12-19T00:45:34.604Z,96.40
2018-12-19T00:46:36.145Z,96.40
2018-12-19T00:47:37.677Z,96.40
2018-12-19T00:48:39.288Z,96.40
2018-12-19T00:49:40.771Z,96.40
2018-12-19T00:50:42.306Z,96.70
2018-12-19T00:51:43.960Z,96.50
2018-12-19T00:52:45.506Z,96.40
2018-12-19T00:53:46.937Z,96.40
2018-12-19T00:54:48.430Z,96.50
2018-12-19T00:55:49.905Z,96.40
2018-12-19T00:56:51.373Z,96.50
2018-12-19T00:57:52.881Z,96.50
2018-12-19T00:58:54.317Z,96.50
2018-12-19T00:59:55.716Z,96.40
2018-12-19T01:00:57.131Z,96.40
2018-12-19T01:01:58.549Z,96.50
2018-12-19T01:03:00.011Z,96.40
2018-12-19T01:04:01.447Z,96.30
2018-12-19T01:05:02.825Z,96.30
2018-12-19T01:06:04.540Z,96.30
2018-12-19T01:07:06.039Z,96.30
2018-12-19T01:08:07.550Z,96.30
2018-12-19T01:09:09.011Z,96.50
2018-12-19T01:10:10.442Z,96.40
2018-12-19T01:11:11.842Z,96.40
2018-12-19T01:12:13.289Z,96.50
2018-12-19T01:13:14.723Z,96.60
2018-12-19T01:14:16.403Z,96.50
2018-12-19T01:15:17.899Z,96.50
2018-12-19T01:16:19.399Z,96.50
2018-12-19T01:17:20.916Z,96.40
2018-12-19T01:18:22.367Z,96.50
2018-12-19T01:19:23.921Z,96.50
2018-12-19T01:20:25.483Z,96.50
2018-12-19T01:21:26.988Z,96.40
2018-12-19T01:22:28.628Z,96.50
2018-12-19T01:23:30.112Z,96.80
2018-12-19T01:24:31.624Z,96.40
2018-12-19T01:25:33.025Z,96.40
2018-12-19T01:26:34.409Z,96.50
2018-12-19T01:27:35.817Z,96.50
2018-12-19T01:28:37.212Z,96.50
2018-12-19T01:29:38.624Z,96.50
2018-12-19T01:30:45.929Z,96.50
2018-12-19T01:31:47.309Z,96.50
2018-12-19T01:32:48.692Z,96.40
2018-12-19T01:33:50.089Z,96.40
2018-12-19T01:34:51.537Z,96.50
2018-12-19T01:35:52.936Z,96.50
2018-12-19T01:36:54.313Z,96.50
2018-12-19T01:37:55.690Z,96.50
2018-12-19T01:38:57.086Z,96.60
2018-12-19T01:39:58.625Z,96.60
2018-12-19T01:41:00.091Z,96.60
2018-12-19T01:42:01.587Z,96.60
2018-12-19T01:43:03.068Z,96.60
2018-12-19T01:44:04.560Z,96.70
2018-12-19T01:45:06.075Z,96.70
2018-12-19T01:46:07.589Z,96.70
2018-12-19T01:47:09.199Z,96.70
2018-12-19T01:48:10.696Z,97.00
2018-12-19T01:49:12.208Z,96.70
2018-12-19T01:50:13.648Z,96.70
2018-12-19T01:51:15.023Z,96.70
2018-12-19T01:52:16.396Z,96.60
2018-12-19T01:53:17.805Z,96.70
2018-12-19T01:54:19.192Z,96.70
2018-12-19T01:55:20.668Z,96.60
2018-12-19T01:56:22.061Z,96.70
2018-12-19T01:57:23.448Z,96.70
2018-12-19T01:58:24.821Z,96.70
2018-12-19T01:59:27.457Z,96.80
2018-12-19T02:00:28.996Z,96.80
2018-12-19T02:01:30.614Z,96.80
2018-12-19T02:02:32.005Z,96.80
2018-12-19T02:03:34.489Z,96.80
2018-12-19T02:04:36.006Z,96.80
2018-12-19T02:05:37.544Z,96.80
2018-12-19T02:06:40.055Z,97.10
2018-12-19T02:07:41.537Z,97.10
2018-12-19T02:08:43.181Z,96.90
2018-12-19T02:09:44.568Z,96.90
2018-12-19T02:10:46.120Z,96.90
2018-12-19T02:11:47.637Z,96.90
2018-12-19T02:12:49.104Z,96.90
2018-12-19T02:13:50.608Z,96.90
2018-12-19T02:14:52.124Z,96.90
2018-12-19T02:15:53.786Z,97.00
2018-12-19T02:16:55.274Z,96.90
2018-12-19T02:17:56.761Z,96.90
2018-12-19T02:18:58.232Z,96.90
2018-12-19T02:19:59.597Z,96.90
2018-12-19T02:21:01.043Z,97.00
2018-12-19T02:22:02.441Z,97.00
2018-12-19T02:23:03.834Z,97.00
2018-12-19T02:24:05.217Z,97.00
2018-12-19T02:25:06.649Z,97.00
2018-12-19T02:26:08.157Z,97.10
2018-12-19T02:27:09.520Z,97.20
2018-12-19T02:28:10.909Z,97.30
2018-12-19T02:29:12.308Z,97.20
2018-12-19T02:30:13.685Z,97.20
2018-12-19T02:31:15.296Z,97.60
2018-12-19T02:32:16.672Z,97.30
2018-12-19T02:33:18.052Z,97.30
2018-12-19T02:34:19.441Z,97.30
2018-12-19T02:35:20.817Z,97.30
2018-12-19T02:36:22.394Z,97.30
2018-12-19T02:37:23.860Z,97.30
2018-12-19T02:38:25.429Z,97.20
2018-12-19T02:39:26.918Z,97.30
2018-12-19T02:40:28.300Z,97.30
2018-12-19T02:41:29.729Z,97.30
2018-12-19T02:42:31.126Z,97.30
2018-12-19T02:43:32.510Z,97.30
2018-12-19T02:44:33.950Z,97.20
2018-12-19T02:45:35.350Z,97.20
2018-12-19T02:46:36.776Z,97.20
2018-12-19T02:47:38.382Z,97.20
2018-12-19T02:48:39.880Z,97.20
2018-12-19T02:49:41.405Z,97.30
2018-12-19T02:50:42.922Z,97.40
2018-12-19T02:51:44.617Z,97.40
2018-12-19T02:52:46.098Z,97.40
2018-12-19T02:53:47.602Z,97.40
2018-12-19T02:54:49.183Z,97.40
2018-12-19T02:55:50.688Z,97.40
2018-12-19T02:56:52.218Z,97.40
2018-12-19T02:57:53.707Z,97.40
2018-12-19T02:58:55.194Z,97.50
2018-12-19T02:59:56.661Z,97.50
2018-12-19T03:00:58.216Z,97.60
2018-12-19T03:01:59.785Z,97.60
2018-12-19T03:03:01.307Z,97.60
2018-12-19T03:04:02.876Z,97.60
2018-12-19T03:05:04.269Z,97.50
2018-12-19T03:06:05.743Z,97.50
2018-12-19T03:07:07.277Z,97.50
2018-12-19T03:08:08.776Z,97.50
2018-12-19T03:09:10.275Z,97.50
2018-12-19T03:10:11.790Z,97.50
2018-12-19T03:11:13.262Z,97.50
2018-12-19T03:12:14.658Z,97.50
2018-12-19T03:13:16.062Z,97.60
2018-12-19T03:14:17.528Z,97.60
2018-12-19T03:15:18.928Z,97.60
2018-12-19T03:16:20.554Z,97.60
2018-12-19T03:17:22.085Z,97.60
2018-12-19T03:18:23.623Z,97.60
2018-12-19T03:19:25.131Z,97.60
2018-12-19T03:20:26.649Z,97.70
2018-12-19T03:21:28.145Z,97.70
2018-12-19T03:22:29.823Z,97.80
2018-12-19T03:23:31.346Z,97.80
2018-12-19T03:24:32.830Z,97.80
2018-12-19T03:25:34.196Z,97.90
2018-12-19T03:26:35.581Z,97.90
2018-12-19T03:27:39.190Z,97.80
2018-12-19T03:28:40.600Z,97.80
2018-12-19T03:29:42.131Z,97.80
2018-12-19T03:30:43.622Z,97.70
2018-12-19T03:31:45.086Z,97.80
2018-12-19T03:32:46.626Z,97.80
2018-12-19T03:33:48.008Z,97.90
2018-12-19T03:34:49.396Z,97.90
2018-12-19T03:35:50.901Z,97.80
2018-12-19T03:36:52.429Z,98.20
2018-12-19T03:37:53.946Z,97.90
2018-12-19T03:38:55.440Z,97.90
2018-12-19T03:39:56.860Z,98.00
2018-12-19T03:40:58.212Z,98.00
2018-12-19T03:41:59.637Z,98.00
2018-12-19T03:43:01.028Z,97.90
2018-12-19T03:44:02.437Z,98.00
2018-12-19T03:45:03.842Z,98.00
2018-12-19T03:46:05.255Z,98.10
2018-12-19T03:47:06.688Z,98.10
2018-12-19T03:48:08.053Z,98.10
2018-12-19T03:49:09.437Z,98.10
2018-12-19T03:50:10.814Z,98.10
2018-12-19T03:51:12.185Z,98.10
2018-12-19T03:52:13.605Z,98.20
2018-12-19T03:53:15.903Z,98.30
2018-12-19T03:54:17.505Z,98.30
2018-12-19T03:55:19.050Z,98.30
2018-12-19T03:56:20.525Z,98.40
2018-12-19T03:57:22.029Z,98.40
2018-12-19T03:58:23.498Z,98.30
2018-12-19T03:59:24.905Z,98.20
2018-12-19T04:00:26.285Z,98.20
2018-12-19T04:01:27.666Z,98.20
2018-12-19T04:02:29.153Z,98.20
2018-12-19T04:03:30.520Z,98.20
2018-12-19T04:04:31.912Z,98.20
2018-12-19T04:05:33.295Z,98.20
2018-12-19T04:06:34.777Z,98.20
2018-12-19T04:07:36.187Z,98.20
2018-12-19T04:08:37.710Z,98.20
2018-12-19T04:09:39.184Z,98.20
2018-12-19T04:10:40.658Z,98.20
2018-12-19T04:11:42.146Z,98.20
2018-12-19T04:12:43.621Z,98.20
2018-12-19T04:13:44.993Z,98.10
2018-12-19T04:14:46.368Z,98.20
2018-12-19T04:15:47.732Z,98.10
2018-12-19T04:16:49.099Z,98.10
2018-12-19T04:17:50.579Z,98.10
2018-12-19T04:18:51.989Z,98.10
2018-12-19T04:19:53.397Z,98.10
2018-12-19T04:20:54.781Z,98.00
2018-12-19T04:21:56.186Z,98.10
2018-12-19T04:22:57.724Z,98.10
2018-12-19T04:23:59.250Z,98.10
2018-12-19T04:25:00.950Z,98.10
2018-12-19T04:26:02.460Z,98.10
2018-12-19T04:27:03.970Z,98.10
2018-12-19T04:28:05.720Z,98.10
2018-12-19T04:29:07.185Z,98.00
2018-12-19T04:30:08.694Z,98.00
2018-12-19T04:31:10.194Z,98.00
2018-12-19T04:32:11.705Z,98.00
2018-12-19T04:33:13.297Z,98.00
2018-12-19T04:34:14.793Z,98.10
2018-12-19T04:35:16.209Z,98.00
2018-12-19T04:36:17.645Z,98.00
2018-12-19T04:37:19.069Z,98.00
2018-12-19T04:38:20.504Z,98.10
2018-12-19T04:39:21.902Z,98.20
2018-12-19T04:40:23.342Z,98.20
2018-12-19T04:41:25.758Z,98.20
2018-12-19T04:42:27.120Z,98.10
2018-12-19T04:43:28.631Z,98.10
2018-12-19T04:44:30.158Z,98.10
2018-12-19T04:45:31.537Z,98.10
2018-12-19T04:46:32.931Z,98.10
2018-12-19T04:47:34.306Z,98.20
2018-12-19T04:48:35.721Z,98.30
2018-12-19T04:49:37.114Z,98.30
2018-12-19T04:50:38.497Z,98.30
2018-12-19T04:51:39.857Z,98.40
2018-12-19T04:52:41.269Z,98.30
2018-12-19T04:53:42.756Z,98.30
2018-12-19T04:54:44.140Z,98.30
2018-12-19T04:55:45.548Z,98.30
2018-12-19T04:56:46.940Z,98.30
2018-12-19T04:57:48.318Z,98.40
2018-12-19T04:58:49.761Z,98.30
2018-12-19T04:59:51.152Z,98.10
2018-12-19T05:00:52.511Z,98.30
2018-12-19T05:01:53.929Z,98.30
2018-12-19T05:02:55.300Z,98.40
2018-12-19T05:03:56.719Z,98.40
2018-12-19T05:04:58.092Z,98.40
2018-12-19T05:05:59.481Z,98.40
2018-12-19T05:07:00.858Z,98.40
2018-12-19T05:08:02.242Z,98.50
2018-12-19T05:09:03.689Z,98.50
2018-12-19T05:10:12.091Z,98.50
2018-12-19T05:11:08.490Z,98.50
2018-12-19T05:12:09.873Z,98.40
2018-12-19T05:13:11.278Z,98.40
2018-12-19T05:14:12.707Z,98.40
2018-12-19T05:15:14.069Z,98.40
2018-12-19T05:16:15.437Z,98.30
2018-12-19T05:17:16.917Z,98.30
2018-12-19T05:18:18.293Z,98.30
2018-12-19T05:19:19.701Z,98.40
2018-12-19T05:20:21.158Z,98.40
2018-12-19T05:21:22.521Z,98.40
2018-12-19T05:22:23.953Z,98.30
2018-12-19T05:23:25.356Z,98.30
2018-12-19T05:24:26.777Z,98.40
2018-12-19T05:25:28.135Z,98.40
2018-12-19T05:26:29.539Z,98.30
2018-12-19T05:27:30.926Z,98.50
2018-12-19T05:28:32.293Z,98.30
2018-12-19T05:29:33.702Z,98.30
2018-12-19T05:30:35.087Z,98.30
2018-12-19T05:31:36.491Z,98.30
2018-12-19T05:32:38.095Z,98.30
2018-12-19T05:33:39.488Z,98.30
2018-12-19T05:34:40.948Z,98.30
2018-12-19T05:35:42.397Z,98.30
2018-12-19T05:36:43.936Z,98.40
2018-12-19T05:37:45.342Z,98.50
2018-12-19T05:38:46.787Z,98.40
2018-12-19T05:39:48.321Z,98.30
2018-12-19T05:40:49.779Z,98.30
2018-12-19T05:42:57.917Z,98.30
2018-12-19T05:43:59.292Z,98.30
2018-12-19T05:45:00.745Z,98.30
2018-12-19T05:46:02.168Z,98.30
2018-12-19T05:47:03.561Z,98.30
2018-12-19T05:48:04.975Z,98.30
2018-12-19T05:49:06.504Z,98.20
2018-12-19T05:50:07.978Z,98.20
2018-12-19T05:51:09.408Z,98.20
2018-12-19T05:52:10.757Z,98.30
2018-12-19T05:53:12.125Z,98.20
2018-12-19T05:54:13.494Z,98.20
2018-12-19T05:55:14.957Z,98.20
2018-12-19T05:56:16.369Z,98.20
2018-12-19T05:57:17.764Z,98.20
2018-12-19T05:58:19.137Z,98.20
2018-12-19T05:59:20.558Z,98.20
2018-12-19T06:00:21.981Z,98.30
2018-12-19T06:01:23.411Z,98.20
2018-12-19T06:02:24.808Z,98.20
2018-12-19T06:03:26.181Z,98.20
2018-12-19T06:04:27.584Z,98.40
2018-12-19T06:05:29.022Z,98.30
2018-12-19T06:06:30.379Z,98.30
2018-12-19T06:07:31.789Z,98.30
2018-12-19T06:08:33.216Z,98.20
2018-12-19T06:09:34.589Z,98.10
2018-12-19T06:10:36.053Z,98.10
2018-12-19T06:11:37.407Z,98.10
2018-12-19T06:12:38.805Z,98.10
2018-12-19T06:13:40.191Z,98.00
2018-12-19T06:14:41.573Z,98.00
2018-12-19T06:15:43.021Z,98.10
2018-12-19T06:16:44.377Z,98.00
2018-12-19T06:18:52.336Z,98.10
2018-12-19T06:19:53.712Z,98.10
2018-12-19T06:20:55.154Z,98.10
2018-12-19T06:21:56.530Z,98.10
2018-12-19T06:22:57.886Z,98.10
2018-12-19T06:23:59.249Z,98.10
2018-12-19T06:25:00.712Z,98.10
2018-12-19T06:26:02.135Z,98.20
2018-12-19T06:27:03.597Z,98.30
2018-12-19T06:28:04.992Z,98.40
2018-12-19T06:29:06.370Z,98.40
2018-12-19T06:30:07.748Z,98.40
2018-12-19T06:31:09.287Z,98.40
2018-12-19T06:32:10.817Z,98.30
2018-12-19T06:33:12.208Z,98.40
2018-12-19T06:34:13.569Z,98.40
2018-12-19T06:35:14.941Z,98.60
2018-12-19T06:36:16.370Z,98.30
2018-12-19T06:37:17.770Z,98.40
2018-12-19T06:38:19.150Z,98.50
2018-12-19T06:39:20.520Z,98.60
2018-12-19T06:40:22.033Z,98.60
2018-12-19T06:41:23.489Z,98.50
2018-12-19T06:42:24.898Z,98.50
2018-12-19T06:43:26.277Z,98.60
2018-12-19T06:44:27.693Z,98.60
2018-12-19T06:45:29.186Z,98.50
2018-12-19T06:46:30.605Z,98.50
2018-12-19T06:48:38.412Z,98.40
2018-12-19T06:49:39.896Z,98.40
2018-12-19T06:50:41.298Z,98.60
2018-12-19T06:51:42.689Z,98.40
2018-12-19T06:52:44.128Z,98.40
2018-12-19T06:53:45.650Z,98.40
2018-12-19T06:54:47.069Z,98.40
2018-12-19T06:55:48.478Z,98.40
2018-12-19T06:56:49.948Z,98.40
2018-12-19T06:57:51.358Z,98.50
2018-12-19T06:58:52.769Z,98.40
2018-12-19T06:59:54.185Z,98.50
2018-12-19T07:00:55.599Z,98.40
2018-12-19T07:01:57.105Z,98.30
2018-12-19T07:04:06.180Z,98.40
2018-12-19T07:05:07.651Z,98.40
2018-12-19T07:06:09.034Z,98.40
2018-12-19T07:07:10.476Z,98.40
2018-12-19T07:08:11.896Z,98.40
2018-12-19T07:09:13.301Z,98.50
2018-12-19T07:10:14.781Z,98.70
2018-12-19T07:11:16.257Z,98.40
2018-12-19T07:12:17.669Z,98.40
2018-12-19T07:13:19.101Z,98.30
2018-12-19T07:14:20.540Z,98.30
2018-12-19T07:15:21.939Z,98.30
2018-12-19T07:16:23.332Z,98.20
2018-12-19T07:17:24.781Z,98.20
2018-12-19T07:18:26.173Z,98.20
2018-12-19T07:19:27.579Z,98.20
2018-12-19T07:20:29.022Z,98.20
2018-12-19T07:21:30.511Z,98.30
2018-12-19T07:22:31.966Z,98.30
2018-12-19T07:23:33.366Z,98.30
2018-12-19T07:24:34.840Z,98.20
2018-12-19T07:25:36.241Z,98.20
2018-12-19T07:26:37.641Z,98.30
2018-12-19T07:27:39.098Z,98.30
2018-12-19T07:28:40.561Z,98.30
2018-12-19T07:29:42.008Z,98.30
2018-12-19T07:30:43.424Z,98.30
2018-12-19T07:31:44.888Z,98.30
2018-12-19T07:32:46.327Z,98.20
2018-12-19T07:33:47.708Z,98.20
2018-12-19T07:34:49.148Z,98.30
2018-12-19T07:35:50.558Z,98.30
2018-12-19T07:36:51.955Z,98.30
2018-12-19T07:37:53.416Z,98.20
2018-12-19T07:38:54.947Z,98.20
2018-12-19T07:39:56.416Z,98.20
2018-12-19T07:40:57.982Z,98.20
2018-12-19T07:41:59.418Z,98.20
2018-12-19T07:43:00.865Z,98.10
2018-12-19T07:44:06.011Z,98.20
2018-12-19T07:45:07.412Z,98.10
2018-12-19T07:46:08.821Z,98.00
2018-12-19T07:47:10.257Z,98.00
2018-12-19T07:48:11.703Z,98.10
2018-12-19T07:49:13.141Z,98.00
2018-12-19T07:50:14.553Z,97.90
2018-12-19T07:51:15.980Z,97.80
2018-12-19T07:52:17.421Z,97.80
2018-12-19T07:53:18.866Z,97.80
2018-12-19T07:54:20.299Z,97.70
2018-12-19T07:55:21.696Z,97.70
2018-12-19T07:56:23.079Z,97.60
2018-12-19T07:57:24.557Z,97.60
2018-12-19T07:58:26.025Z,97.60
2018-12-19T07:59:27.461Z,97.60
2018-12-19T08:00:28.864Z,97.60
2018-12-19T08:01:30.314Z,97.60
2018-12-19T08:02:31.786Z,97.60
2018-12-19T08:03:33.180Z,97.50
2018-12-19T08:04:34.633Z,97.40
2018-12-19T08:05:36.018Z,97.40
2018-12-19T08:06:37.447Z,97.30
2018-12-19T08:07:38.991Z,97.30
2018-12-19T08:08:40.405Z,97.30
2018-12-19T08:09:41.849Z,97.30
2018-12-19T08:10:43.276Z,97.20
2018-12-19T08:11:44.655Z,97.10
2018-12-19T08:12:46.141Z,97.00
2018-12-19T08:13:47.547Z,97.00
2018-12-19T08:14:48.971Z,97.20
2018-12-19T08:15:50.390Z,97.00
2018-12-19T08:16:51.783Z,96.90
2018-12-19T08:17:53.305Z,96.80
2018-12-19T08:18:54.773Z,96.70
2018-12-19T08:19:56.166Z,96.70
2018-12-19T08:20:57.593Z,96.60
2018-12-19T08:21:58.992Z,96.50
2018-12-19T08:23:00.430Z,96.50
2018-12-19T08:24:01.840Z,96.60
2018-12-19T08:25:03.220Z,96.70
2018-12-19T08:26:04.691Z,96.70
2018-12-19T08:27:06.098Z,96.70
2018-12-19T08:28:07.601Z,96.60
2018-12-19T08:29:09.043Z,96.50
2018-12-19T08:30:10.498Z,96.70
2018-12-19T08:31:11.918Z,96.40
2018-12-19T08:32:13.332Z,96.40
2018-12-19T08:33:14.780Z,96.30
2018-12-19T08:34:16.178Z,96.20
2018-12-19T08:35:17.641Z,96.20
2018-12-19T08:36:19.039Z,96.10
2018-12-19T08:37:20.446Z,96.20
2018-12-19T08:38:21.972Z,96.20
2018-12-19T08:39:23.365Z,96.10
2018-12-19T08:40:25.287Z,96.10
2018-12-19T08:41:26.716Z,96.20
2018-12-19T08:42:28.136Z,96.10
2018-12-19T08:43:29.626Z,96.10
2018-12-19T08:44:31.011Z,96.00
2018-12-19T08:45:32.439Z,96.10
2018-12-19T08:46:33.878Z,96.10
2018-12-19T08:47:35.288Z,96.20
2018-12-19T08:48:36.737Z,96.30
2018-12-19T08:49:38.150Z,95.90
2018-12-19T08:50:39.649Z,95.90
2018-12-19T08:51:41.249Z,95.90
2018-12-19T08:52:42.652Z,95.90
2018-12-19T08:53:44.175Z,95.90
2018-12-19T08:54:45.612Z,95.70
2018-12-19T08:55:47.017Z,95.70
2018-12-19T08:56:48.465Z,95.70
2018-12-19T08:57:49.857Z,95.70
2018-12-19T08:58:51.391Z,95.80
2018-12-19T08:59:52.961Z,95.70
2018-12-19T09:00:54.387Z,95.70
2018-12-19T09:01:55.841Z,95.70
2018-12-19T09:02:57.287Z,95.70
2018-12-19T09:03:58.780Z,95.60
2018-12-19T09:05:00.173Z,95.50
2018-12-19T09:06:01.639Z,95.50
2018-12-19T09:07:03.064Z,95.60
2018-12-19T09:08:04.509Z,95.60
2018-12-19T09:09:05.990Z,95.60
2018-12-19T09:10:07.389Z,95.80
2018-12-19T09:11:08.801Z,95.50
2018-12-19T09:12:10.218Z,95.50
2018-12-19T09:13:11.703Z,95.50
2018-12-19T09:14:13.190Z,95.60
2018-12-19T09:15:14.621Z,95.80
2018-12-19T09:16:16.035Z,95.60
2018-12-19T09:17:17.455Z,95.90
2018-12-19T09:18:18.850Z,95.60
2018-12-19T09:19:20.286Z,95.50
2018-12-19T09:20:21.707Z,95.40
2018-12-19T09:21:23.138Z,95.30
2018-12-19T09:22:24.580Z,95.10
2018-12-19T09:23:25.979Z,95.30
2018-12-19T09:24:27.460Z,95.40
2018-12-19T09:25:28.876Z,95.20
2018-12-19T09:26:30.229Z,95.10
2018-12-19T09:27:31.635Z,95.00
2018-12-19T09:28:33.068Z,95.00
2018-12-19T09:29:34.602Z,95.10
2018-12-19T09:30:35.989Z,95.00
2018-12-19T09:31:37.394Z,95.10
2018-12-19T09:32:38.790Z,95.00
2018-12-19T09:33:40.196Z,94.90
2018-12-19T09:34:41.640Z,94.80
2018-12-19T09:35:43.021Z,94.70
2018-12-19T09:36:44.459Z,94.80
2018-12-19T09:37:46.146Z,94.80
2018-12-19T09:38:47.582Z,94.70
2018-12-19T09:39:49.077Z,94.60
2018-12-19T09:40:50.507Z,94.50
2018-12-19T09:41:51.876Z,94.60
2018-12-19T09:42:53.301Z,94.50
2018-12-19T09:43:54.689Z,94.30
2018-12-19T09:44:56.177Z,94.30
2018-12-19T09:45:57.579Z,94.30
2018-12-19T09:46:59.147Z,94.20
2018-12-19T09:48:00.547Z,94.10
2018-12-19T09:49:02.049Z,94.20
2018-12-19T09:50:03.538Z,94.20
2018-12-19T09:51:04.937Z,94.20
2018-12-19T09:52:06.377Z,94.20
2018-12-19T09:53:07.887Z,94.20
2018-12-19T09:54:09.338Z,94.30
2018-12-19T09:55:10.789Z,94.20
2018-12-19T09:56:12.208Z,94.10
2018-12-19T09:57:13.587Z,93.90
2018-12-19T09:58:15.024Z,94.00
2018-12-19T09:59:16.477Z,94.00
2018-12-19T10:00:17.920Z,94.10
2018-12-19T10:01:19.357Z,94.00
2018-12-19T10:02:20.737Z,94.00
2018-12-19T10:03:22.128Z,94.00
2018-12-19T10:04:23.525Z,94.00
2018-12-19T10:05:25.029Z,94.00
2018-12-19T10:06:26.432Z,94.00
2018-12-19T10:07:27.831Z,94.00
2018-12-19T10:08:29.315Z,94.10
2018-12-19T10:09:31.110Z,94.00
2018-12-19T10:10:32.610Z,94.30
2018-12-19T10:11:34.026Z,94.20
2018-12-19T10:12:35.432Z,94.20
2018-12-19T10:13:36.821Z,94.20
2018-12-19T10:14:38.295Z,94.30
2018-12-19T10:15:39.857Z,94.40
2018-12-19T10:16:41.290Z,94.20
2018-12-19T10:17:42.715Z,94.20
2018-12-19T10:18:44.155Z,94.30
2018-12-19T10:19:45.558Z,94.50
2018-12-19T10:20:47.057Z,94.20
2018-12-19T10:22:55.202Z,94.20
2018-12-19T10:23:56.644Z,94.30
2018-12-19T10:24:58.065Z,94.20
2018-12-19T10:25:59.549Z,94.30
2018-12-19T10:27:00.980Z,94.30
2018-12-19T10:28:02.454Z,94.50
2018-12-19T10:29:03.840Z,94.70
2018-12-19T10:30:05.327Z,94.70
2018-12-19T10:31:06.759Z,94.80
2018-12-19T10:32:08.145Z,94.80
2018-12-19T10:33:09.686Z,94.80
2018-12-19T10:34:11.069Z,94.90
2018-12-19T10:35:12.524Z,94.80
2018-12-19T10:36:13.971Z,94.80
2018-12-19T10:37:15.434Z,94.80
2018-12-19T10:38:16.904Z,94.80
2018-12-19T10:39:18.343Z,94.50
2018-12-19T10:40:19.797Z,94.60
2018-12-19T10:41:25.444Z,94.40
2018-12-19T10:42:24.942Z,94.40
2018-12-19T10:43:26.355Z,94.30
2018-12-19T10:44:27.762Z,94.30
2018-12-19T10:45:29.206Z,94.00
2018-12-19T10:46:30.763Z,94.10
2018-12-19T10:47:32.186Z,94.10
2018-12-19T10:48:33.556Z,94.20
2018-12-19T10:49:35.018Z,94.10
2018-12-19T10:50:36.586Z,94.10
2018-12-19T10:51:38.106Z,94.00
2018-12-19T10:52:39.711Z,93.90
2018-12-19T10:53:41.119Z,93.90
2018-12-19T10:54:42.524Z,93.80
2018-12-19T10:55:43.914Z,93.80
2018-12-19T10:56:45.321Z,94.00
2018-12-19T10:57:46.707Z,93.60
2018-12-19T10:58:48.224Z,93.60
2018-12-19T10:59:49.671Z,93.60
2018-12-19T11:00:51.110Z,93.50
2018-12-19T11:01:52.618Z,93.30
2018-12-19T11:02:54.090Z,93.00
2018-12-19T11:03:55.586Z,93.00
2018-12-19T11:04:57.018Z,92.90
2018-12-19T11:05:58.474Z,93.00
2018-12-19T11:06:59.948Z,93.10
2018-12-19T11:08:01.409Z,93.20
2018-12-19T11:09:02.855Z,93.20
2018-12-19T11:10:04.338Z,93.30
2018-12-19T11:11:05.813Z,93.20
2018-12-19T11:12:07.420Z,93.10
2018-12-19T11:13:08.884Z,92.90
2018-12-19T11:14:10.377Z,92.80
2018-12-19T11:15:11.808Z,92.60
2018-12-19T11:16:13.286Z,92.70
2018-12-19T11:17:14.730Z,92.80
2018-12-19T11:18:16.136Z,92.70
2018-12-19T11:19:17.523Z,92.90
2018-12-19T11:20:18.955Z,92.80
2018-12-19T11:21:20.345Z,92.60
2018-12-19T11:22:21.820Z,92.50
2018-12-19T11:23:23.273Z,92.40
2018-12-19T11:24:24.670Z,92.60
2018-12-19T11:25:26.079Z,92.50
2018-12-19T11:26:27.559Z,92.40
2018-12-19T11:27:29.084Z,92.40
2018-12-19T11:28:30.584Z,92.30
2018-12-19T11:29:31.969Z,92.20
2018-12-19T11:30:33.373Z,92.20
2018-12-19T11:31:34.787Z,92.00
2018-12-19T11:32:36.267Z,92.00
2018-12-19T11:33:37.707Z,92.10
2018-12-19T11:34:39.118Z,92.10
2018-12-19T11:35:40.542Z,92.10
2018-12-19T11:36:42.000Z,92.10
2018-12-19T11:37:43.534Z,91.90
2018-12-19T11:38:44.954Z,91.90
2018-12-19T11:39:46.425Z,91.90
2018-12-19T11:40:47.824Z,91.60
2018-12-19T11:41:49.247Z,91.50
2018-12-19T11:42:50.739Z,91.30
2018-12-19T11:43:52.191Z,91.10
2018-12-19T11:44:53.616Z,91.20
2018-12-19T11:45:55.191Z,91.30
2018-12-19T11:46:56.629Z,91.30
2018-12-19T11:47:58.186Z,91.10
2018-12-19T11:48:59.771Z,91.00
2018-12-19T11:50:01.217Z,90.90
2018-12-19T11:51:02.637Z,90.50
2018-12-19T11:52:04.073Z,90.20
2018-12-19T11:53:05.591Z,90.10
2018-12-19T11:54:07.001Z,90.20
2018-12-19T11:55:08.429Z,90.40
2018-12-19T11:56:09.867Z,90.40
2018-12-19T11:57:11.320Z,90.60
2018-12-19T11:58:12.807Z,90.40
2018-12-19T11:59:14.264Z,90.40
2018-12-19T12:00:15.681Z,90.40
2018-12-19T12:01:17.116Z,90.50
2018-12-19T12:02:18.540Z,90.60
2018-12-19T12:03:19.939Z,90.50
2018-12-19T12:04:21.350Z,90.70
2018-12-19T12:05:22.827Z,90.80
2018-12-19T12:06:24.206Z,90.70
2018-12-19T12:07:25.633Z,90.80
2018-12-19T12:08:27.101Z,90.90
2018-12-19T12:09:28.538Z,91.10
2018-12-19T12:10:29.940Z,90.80
2018-12-19T12:11:31.428Z,90.80
2018-12-19T12:12:33.796Z,90.90
2018-12-19T12:13:35.233Z,90.90
2018-12-19T12:14:36.780Z,90.90
2018-12-19T12:15:38.225Z,91.10
2018-12-19T12:16:39.660Z,91.30
2018-12-19T12:17:41.051Z,91.00
2018-12-19T12:18:42.460Z,91.10
2018-12-19T12:19:43.871Z,91.20
2018-12-19T12:20:45.277Z,91.20
2018-12-19T12:21:46.712Z,91.30
2018-12-19T12:22:48.092Z,91.50
2018-12-19T12:23:49.536Z,91.60
2018-12-19T12:24:50.944Z,91.60
2018-12-19T12:25:52.349Z,91.60
2018-12-19T12:26:53.777Z,91.70
2018-12-19T12:27:55.180Z,91.50
2018-12-19T12:28:56.693Z,91.40
2018-12-19T12:29:58.093Z,91.50
2018-12-19T12:30:59.520Z,91.60
2018-12-19T12:32:00.931Z,91.50
2018-12-19T12:33:02.288Z,91.60
2018-12-19T12:34:03.730Z,91.60
2018-12-19T12:35:10.396Z,91.60
2018-12-19T12:36:11.831Z,91.60
2018-12-19T12:37:13.297Z,91.80
2018-12-19T12:38:14.750Z,91.80
2018-12-19T12:39:16.215Z,91.90
2018-12-19T12:40:17.662Z,91.90
2018-12-19T12:41:19.033Z,91.80
2018-12-19T12:42:20.450Z,91.40
2018-12-19T12:43:21.885Z,91.20
2018-12-19T12:44:23.332Z,91.50
2018-12-19T12:45:24.806Z,91.60
2018-12-19T12:46:26.252Z,91.50
2018-12-19T12:47:27.648Z,91.30
2018-12-19T12:48:29.120Z,91.50
2018-12-19T12:49:30.521Z,91.50
2018-12-19T12:50:31.944Z,91.50
2018-12-19T12:51:33.330Z,91.10
2018-12-19T12:52:34.824Z,91.00
2018-12-19T12:53:36.344Z,91.00
2018-12-19T12:54:37.779Z,91.10
2018-12-19T12:55:39.220Z,90.90
2018-12-19T12:56:40.966Z,90.80
2018-12-19T12:57:42.512Z,90.80
2018-12-19T12:58:44.018Z,90.70
2018-12-19T12:59:45.469Z,91.00
2018-12-19T13:00:46.914Z,91.00
2018-12-19T13:01:48.347Z,90.40
2018-12-19T13:02:49.797Z,90.40
2018-12-19T13:04:58.953Z,91.00
2018-12-19T13:06:00.418Z,91.10
2018-12-19T13:07:01.816Z,91.10
2018-12-19T13:08:03.294Z,91.40
2018-12-19T13:09:04.749Z,91.20
2018-12-19T13:10:06.279Z,91.30
2018-12-19T13:11:07.694Z,91.10
2018-12-19T13:12:09.131Z,91.00
2018-12-19T13:13:10.549Z,91.30
2018-12-19T13:14:12.028Z,91.50
2018-12-19T13:15:13.628Z,91.20
2018-12-19T13:16:15.028Z,91.50
2018-12-19T13:17:16.495Z,91.40
2018-12-19T13:18:17.978Z,91.30